Time;durP1;ratioP1;P1;durP2;ratioP2;P2;SDS_P1;SDS_P2;PMS_P1;PMS_P2;Temp;Humidity;BMP_temperature;BMP_pressure;BME280_temperature;BME280_humidity;BME280_pressure;Samples;Min_cycle;Max_cycle;Signal;HPM_P1;HPM_P2
2022/11/02 00:00:33;;;;;;;6.33;2.43;;;;;;;;;;4953591;29;20484;-91
2022/11/02 00:03:23;;;;;;;6.67;2.40;;;;;;;;;;4945390;29;20466;-93
2022/11/02 00:06:15;;;;;;;5.70;2.03;;;;;;;;;;4949615;29;20479;-93
2022/11/02 00:09:07;;;;;;;4.97;2.00;;;;;;;;;;4947820;28;21176;-92
2022/11/02 00:12:12;;;;;;;5.50;1.70;;;;;;;;;;4951219;28;20480;-91
2022/11/02 00:15:05;;;;;;;4.10;1.70;;;;;;;;;;4951533;29;20460;-92
2022/11/02 00:17:55;;;;;;;5.50;2.67;;;;;;;;;;4950080;29;20454;-92
2022/11/02 00:20:48;;;;;;;3.33;1.73;;;;;;;;;;4922802;28;20485;-90
2022/11/02 00:23:38;;;;;;;5.03;2.17;;;;;;;;;;4950724;28;20460;-90
2022/11/02 00:26:37;;;;;;;4.23;1.70;;;;;;;;;;4954839;28;20459;-91
2022/11/02 00:29:28;;;;;;;2.90;2.53;;;;;;;;;;4952454;28;20894;-91
2022/11/02 00:32:23;;;;;;;5.33;2.20;;;;;;;;;;4950035;28;20473;-91
2022/11/02 00:35:29;;;;;;;4.90;1.93;;;;;;;;;;4947345;28;20460;-90
2022/11/02 00:38:30;;;;;;;7.10;1.70;;;;;;;;;;4950602;28;20484;-91
2022/11/02 00:41:30;;;;;;;7.13;2.80;;;;;;;;;;4951525;28;20473;-91
2022/11/02 00:44:22;;;;;;;4.40;2.00;;;;;;;;;;4951233;28;20468;-90
2022/11/02 00:47:13;;;;;;;3.10;2.13;;;;;;;;;;4952043;28;20484;-89
2022/11/02 00:50:07;;;;;;;3.23;1.70;;;;;;;;;;4949548;28;20559;-90
2022/11/02 00:53:16;;;;;;;8.80;2.23;;;;;;;;;;4949284;28;20476;-92
2022/11/02 00:56:07;;;;;;;3.13;1.70;;;;;;;;;;4950857;29;20444;-90
2022/11/02 00:58:58;;;;;;;6.77;2.30;;;;;;;;;;4951478;29;20447;-91
2022/11/02 01:01:59;;;;;;;5.03;1.87;;;;;;;;;;4948238;29;20488;-92
2022/11/02 01:05:03;;;;;;;5.97;2.00;;;;;;;;;;4948771;29;20436;-91
2022/11/02 01:14:19;;;;;;;7.30;2.90;;;;;;;;;;4944550;29;20492;-91
2022/11/02 01:17:10;;;;;;;3.83;2.10;;;;;;;;;;4947483;29;20475;-92
2022/11/02 01:20:04;;;;;;;4.47;1.73;;;;;;;;;;4940835;29;20472;-91
2022/11/02 01:22:53;;;;;;;5.40;2.10;;;;;;;;;;4947993;29;20516;-91
2022/11/02 01:25:47;;;;;;;7.03;1.90;;;;;;;;;;4947169;28;20480;-90
2022/11/02 01:31:45;;;;;;;6.27;1.60;;;;;;;;;;4945224;29;20476;-90
2022/11/02 01:34:38;;;;;;;7.10;2.33;;;;;;;;;;4951214;29;20461;-89
2022/11/02 01:37:28;;;;;;;5.23;1.90;;;;;;;;;;4947273;29;20469;-90
2022/11/02 01:43:50;;;;;;;4.10;2.00;;;;;;;;;;4950603;28;20456;-91
2022/11/02 01:50:47;;;;;;;4.20;1.90;;;;;;;;;;4950742;29;20472;-91
2022/11/02 01:57:03;;;;;;;4.27;2.07;;;;;;;;;;4946710;29;20464;-94
2022/11/02 01:59:56;;;;;;;10.60;2.53;;;;;;;;;;4938396;29;20532;-91
2022/11/02 02:02:52;;;;;;;9.83;2.40;;;;;;;;;;4952065;29;20449;-91
2022/11/02 12:39:27;;;;;;;3.13;1.20;;;;;;;;;;4964323;28;20475;-96
2022/11/02 12:42:25;;;;;;;2.60;1.07;;;;;;;;;;4955484;29;20491;-93
2022/11/02 12:45:34;;;;;;;2.13;1.27;;;;;;;;;;4955822;29;20459;-94
2022/11/02 13:00:37;;;;;;;2.07;1.27;;;;;;;;;;4987957;28;20482;-93
2022/11/02 13:03:31;;;;;;;5.30;1.20;;;;;;;;;;4973568;28;20455;-93
2022/11/02 13:06:23;;;;;;;3.07;1.50;;;;;;;;;;4980150;28;20450;-93
2022/11/02 13:09:23;;;;;;;3.07;1.20;;;;;;;;;;4995949;28;20485;-93
2022/11/02 13:12:18;;;;;;;3.90;1.20;;;;;;;;;;4992208;28;20533;-93
2022/11/02 20:41:54;;;;;;;5.90;4.00;;;;;;;;;;4944885;28;20479;-91
2022/11/02 20:55:26;;;;;;;4.40;3.70;;;;;;;;;;4941962;28;20458;-91
2022/11/02 20:58:30;;;;;;;4.53;3.87;;;;;;;;;;4949480;28;20806;-91
2022/11/02 21:14:39;;;;;;;9.40;4.80;;;;;;;;;;4946490;28;20462;-92
2022/11/02 21:17:30;;;;;;;6.60;4.83;;;;;;;;;;4945445;28;20437;-92
2022/11/02 21:33:35;;;;;;;8.50;4.50;;;;;;;;;;4963231;23;20520;-91
